sensor_id;sensor_type;location;lat;lon;timestamp;P1;durP1;ratioP1;P2;durP2;ratioP2
6823;SDS011;58633;49.470;11.004;2022-10-31T00:01:21;11.20;;;8.00;;
6823;SDS011;58633;49.470;11.004;2022-10-31T00:03:48;11.88;;;8.30;;
6823;SDS011;58633;49.470;11.004;2022-10-31T00:06:14;11.32;;;8.05;;
6823;SDS011;58633;49.470;11.004;2022-10-31T00:08:43;10.63;;;8.45;;
6823;SDS011;58633;49.470;11.004;2022-10-31T00:11:09;12.52;;;8.77;;
6823;SDS011;58633;49.470;11.004;2022-10-31T00:13:35;12.63;;;8.27;;
6823;SDS011;58633;49.470;11.004;2022-10-31T00:16:01;12.13;;;7.93;;
6823;SDS011;58633;49.470;11.004;2022-10-31T00:18:26;11.05;;;8.73;;
6823;SDS011;58633;49.470;11.004;2022-10-31T00:21:02;14.43;;;9.10;;
6823;SDS011;58633;49.470;11.004;2022-10-31T00:23:28;12.88;;;9.00;;
6823;SDS011;58633;49.470;11.004;2022-10-31T00:25:59;12.70;;;8.98;;
6823;SDS011;58633;49.470;11.004;2022-10-31T00:28:28;11.20;;;9.20;;
6823;SDS011;58633;49.470;11.004;2022-10-31T00:30:57;12.10;;;8.63;;
6823;SDS011;58633;49.470;11.004;2022-10-31T00:33:24;12.15;;;8.65;;
6823;SDS011;58633;49.470;11.004;2022-10-31T00:35:50;11.90;;;9.50;;
6823;SDS011;58633;49.470;11.004;2022-10-31T00:38:15;10.35;;;8.45;;
6823;SDS011;58633;49.470;11.004;2022-10-31T00:40:41;12.90;;;8.57;;
6823;SDS011;58633;49.470;11.004;2022-10-31T00:43:06;12.55;;;8.25;;
6823;SDS011;58633;49.470;11.004;2022-10-31T00:45:32;14.13;;;9.52;;
6823;SDS011;58633;49.470;11.004;2022-10-31T00:47:58;12.30;;;8.10;;
6823;SDS011;58633;49.470;11.004;2022-10-31T00:50:23;10.82;;;7.82;;
6823;SDS011;58633;49.470;11.004;2022-10-31T00:52:49;11.50;;;8.70;;
6823;SDS011;58633;49.470;11.004;2022-10-31T00:55:14;10.82;;;7.50;;
6823;SDS011;58633;49.470;11.004;2022-10-31T00:57:40;11.70;;;7.85;;
6823;SDS011;58633;49.470;11.004;2022-10-31T01:00:05;12.45;;;7.88;;
6823;SDS011;58633;49.470;11.004;2022-10-31T01:02:31;10.10;;;7.93;;
6823;SDS011;58633;49.470;11.004;2022-10-31T01:04:57;11.73;;;8.55;;
6823;SDS011;58633;49.470;11.004;2022-10-31T01:07:22;10.20;;;8.23;;
6823;SDS011;58633;49.470;11.004;2022-10-31T01:09:48;12.48;;;8.43;;
6823;SDS011;58633;49.470;11.004;2022-10-31T01:12:13;11.27;;;8.18;;
6823;SDS011;58633;49.470;11.004;2022-10-31T01:14:42;13.00;;;8.55;;
6823;SDS011;58633;49.470;11.004;2022-10-31T01:17:09;11.57;;;8.32;;
6823;SDS011;58633;49.470;11.004;2022-10-31T01:19:35;9.70;;;8.23;;
6823;SDS011;58633;49.470;11.004;2022-10-31T01:22:01;12.07;;;8.63;;
6823;SDS011;58633;49.470;11.004;2022-10-31T01:24:26;11.07;;;8.10;;
6823;SDS011;58633;49.470;11.004;2022-10-31T01:26:52;9.68;;;7.55;;
6823;SDS011;58633;49.470;11.004;2022-10-31T01:29:17;9.85;;;7.75;;
6823;SDS011;58633;49.470;11.004;2022-10-31T01:31:43;10.25;;;7.90;;
6823;SDS011;58633;49.470;11.004;2022-10-31T01:34:10;10.70;;;8.30;;
6823;SDS011;58633;49.470;11.004;2022-10-31T01:36:39;9.85;;;7.60;;
6823;SDS011;58633;49.470;11.004;2022-10-31T01:39:14;9.95;;;7.57;;
6823;SDS011;58633;49.470;11.004;2022-10-31T01:41:41;9.63;;;7.35;;
6823;SDS011;58633;49.470;11.004;2022-10-31T01:46:42;9.65;;;7.93;;
6823;SDS011;58633;49.470;11.004;2022-10-31T01:49:10;13.68;;;7.88;;
6823;SDS011;58633;49.470;11.004;2022-10-31T01:51:51;11.93;;;7.95;;
6823;SDS011;58633;49.470;11.004;2022-10-31T01:54:22;11.10;;;7.90;;
6823;SDS011;58633;49.470;11.004;2022-10-31T01:56:53;10.57;;;8.07;;
6823;SDS011;58633;49.470;11.004;2022-10-31T01:59:22;14.68;;;8.30;;
6823;SDS011;58633;49.470;11.004;2022-10-31T02:01:51;10.05;;;7.68;;
6823;SDS011;58633;49.470;11.004;2022-10-31T02:04:17;11.18;;;7.57;;
6823;SDS011;58633;49.470;11.004;2022-10-31T02:06:49;21.48;;;8.20;;
6823;SDS011;58633;49.470;11.004;2022-10-31T02:09:20;9.88;;;7.93;;
6823;SDS011;58633;49.470;11.004;2022-10-31T02:11:48;14.02;;;7.78;;
6823;SDS011;58633;49.470;11.004;2022-10-31T02:14:17;9.63;;;7.25;;
6823;SDS011;58633;49.470;11.004;2022-10-31T02:16:43;9.13;;;6.80;;
6823;SDS011;58633;49.470;11.004;2022-10-31T02:19:08;7.72;;;6.93;;
6823;SDS011;58633;49.470;11.004;2022-10-31T02:21:49;8.18;;;6.93;;
6823;SDS011;58633;49.470;11.004;2022-10-31T02:30:05;8.55;;;7.10;;
6823;SDS011;58633;49.470;11.004;2022-10-31T02:41:18;11.65;;;7.22;;
6823;SDS011;58633;49.470;11.004;2022-10-31T02:46:34;9.52;;;7.28;;
6823;SDS011;58633;49.470;11.004;2022-10-31T02:49:12;9.80;;;7.35;;
6823;SDS011;58633;49.470;11.004;2022-10-31T02:51:46;11.30;;;7.13;;
6823;SDS011;58633;49.470;11.004;2022-10-31T02:54:19;8.50;;;6.93;;
6823;SDS011;58633;49.470;11.004;2022-10-31T02:56:48;10.13;;;7.18;;
6823;SDS011;58633;49.470;11.004;2022-10-31T02:59:15;10.32;;;6.55;;
6823;SDS011;58633;49.470;11.004;2022-10-31T03:02:00;12.45;;;6.68;;
6823;SDS011;58633;49.470;11.004;2022-10-31T03:04:56;8.38;;;6.53;;
6823;SDS011;58633;49.470;11.004;2022-10-31T03:18:13;7.70;;;6.93;;
6823;SDS011;58633;49.470;11.004;2022-10-31T03:20:34;7.78;;;6.65;;
6823;SDS011;58633;49.470;11.004;2022-10-31T03:23:04;8.75;;;6.38;;
6823;SDS011;58633;49.470;11.004;2022-10-31T03:25:33;8.25;;;6.40;;
6823;SDS011;58633;49.470;11.004;2022-10-31T03:28:00;12.30;;;7.88;;
6823;SDS011;58633;49.470;11.004;2022-10-31T03:30:28;10.32;;;6.63;;
6823;SDS011;58633;49.470;11.004;2022-10-31T03:32:58;9.35;;;7.00;;
6823;SDS011;58633;49.470;11.004;2022-10-31T03:35:27;8.93;;;6.53;;
6823;SDS011;58633;49.470;11.004;2022-10-31T03:37:54;8.73;;;6.45;;
6823;SDS011;58633;49.470;11.004;2022-10-31T03:40:21;10.40;;;6.30;;
6823;SDS011;58633;49.470;11.004;2022-10-31T03:42:55;8.80;;;6.75;;
6823;SDS011;58633;49.470;11.004;2022-10-31T03:45:26;11.32;;;7.10;;
6823;SDS011;58633;49.470;11.004;2022-10-31T03:47:54;7.95;;;6.38;;
6823;SDS011;58633;49.470;11.004;2022-10-31T03:50:21;8.73;;;6.70;;
6823;SDS011;58633;49.470;11.004;2022-10-31T03:55:39;7.82;;;6.85;;
6823;SDS011;58633;49.470;11.004;2022-10-31T03:58:09;7.68;;;6.28;;
6823;SDS011;58633;49.470;11.004;2022-10-31T04:00:58;10.10;;;6.50;;
6823;SDS011;58633;49.470;11.004;2022-10-31T04:03:27;11.75;;;7.03;;
6823;SDS011;58633;49.470;11.004;2022-10-31T04:05:56;8.98;;;5.63;;
6823;SDS011;58633;49.470;11.004;2022-10-31T04:08:26;8.73;;;6.75;;
6823;SDS011;58633;49.470;11.004;2022-10-31T04:10:54;8.30;;;5.50;;
6823;SDS011;58633;49.470;11.004;2022-10-31T04:13:26;6.95;;;5.68;;
6823;SDS011;58633;49.470;11.004;2022-10-31T04:15:54;7.82;;;6.05;;
6823;SDS011;58633;49.470;11.004;2022-10-31T04:18:23;6.38;;;5.72;;
6823;SDS011;58633;49.470;11.004;2022-10-31T04:20:58;6.75;;;5.47;;
6823;SDS011;58633;49.470;11.004;2022-10-31T04:23:29;5.47;;;4.82;;
6823;SDS011;58633;49.470;11.004;2022-10-31T04:25:55;6.18;;;5.53;;
6823;SDS011;58633;49.470;11.004;2022-10-31T04:28:21;6.03;;;5.20;;
6823;SDS011;58633;49.470;11.004;2022-10-31T04:30:46;5.93;;;4.75;;
6823;SDS011;58633;49.470;11.004;2022-10-31T04:33:12;5.78;;;4.97;;
6823;SDS011;58633;49.470;11.004;2022-10-31T04:35:38;5.40;;;4.90;;
6823;SDS011;58633;49.470;11.004;2022-10-31T04:38:03;5.75;;;4.95;;
6823;SDS011;58633;49.470;11.004;2022-10-31T04:40:29;5.18;;;4.68;;
6823;SDS011;58633;49.470;11.004;2022-10-31T04:42:54;7.40;;;5.40;;
6823;SDS011;58633;49.470;11.004;2022-10-31T04:45:20;8.15;;;5.50;;
6823;SDS011;58633;49.470;11.004;2022-10-31T04:47:45;7.68;;;5.40;;
6823;SDS011;58633;49.470;11.004;2022-10-31T04:50:11;8.77;;;6.05;;
6823;SDS011;58633;49.470;11.004;2022-10-31T04:52:41;8.55;;;6.90;;
6823;SDS011;58633;49.470;11.004;2022-10-31T04:55:07;7.30;;;6.43;;
6823;SDS011;58633;49.470;11.004;2022-10-31T04:57:43;8.43;;;6.50;;
6823;SDS011;58633;49.470;11.004;2022-10-31T05:00:12;8.23;;;6.75;;
6823;SDS011;58633;49.470;11.004;2022-10-31T05:02:46;8.68;;;6.65;;
6823;SDS011;58633;49.470;11.004;2022-10-31T05:05:16;9.30;;;6.70;;
6823;SDS011;58633;49.470;11.004;2022-10-31T05:07:43;10.35;;;6.90;;
6823;SDS011;58633;49.470;11.004;2022-10-31T05:10:11;10.52;;;7.20;;
6823;SDS011;58633;49.470;11.004;2022-10-31T05:12:40;9.48;;;7.07;;
6823;SDS011;58633;49.470;11.004;2022-10-31T05:15:14;13.38;;;7.80;;
6823;SDS011;58633;49.470;11.004;2022-10-31T05:17:41;14.85;;;7.30;;
6823;SDS011;58633;49.470;11.004;2022-10-31T05:20:06;8.98;;;6.38;;
6823;SDS011;58633;49.470;11.004;2022-10-31T05:22:32;9.82;;;6.30;;
6823;SDS011;58633;49.470;11.004;2022-10-31T05:24:58;9.00;;;6.32;;
6823;SDS011;58633;49.470;11.004;2022-10-31T05:27:23;9.27;;;6.85;;
6823;SDS011;58633;49.470;11.004;2022-10-31T05:29:49;9.82;;;7.10;;
6823;SDS011;58633;49.470;11.004;2022-10-31T05:32:14;11.70;;;6.97;;
6823;SDS011;58633;49.470;11.004;2022-10-31T05:34:40;10.13;;;6.70;;
6823;SDS011;58633;49.470;11.004;2022-10-31T05:37:05;7.80;;;6.72;;
6823;SDS011;58633;49.470;11.004;2022-10-31T05:39:31;9.02;;;6.15;;
6823;SDS011;58633;49.470;11.004;2022-10-31T05:41:56;7.80;;;6.10;;
6823;SDS011;58633;49.470;11.004;2022-10-31T05:44:22;13.02;;;6.28;;
6823;SDS011;58633;49.470;11.004;2022-10-31T05:46:47;9.73;;;6.50;;
6823;SDS011;58633;49.470;11.004;2022-10-31T05:49:13;7.00;;;6.05;;
6823;SDS011;58633;49.470;11.004;2022-10-31T05:51:38;9.75;;;6.80;;
6823;SDS011;58633;49.470;11.004;2022-10-31T05:54:04;10.77;;;7.03;;
6823;SDS011;58633;49.470;11.004;2022-10-31T05:56:30;7.82;;;6.53;;
6823;SDS011;58633;49.470;11.004;2022-10-31T05:58:55;8.40;;;6.50;;
6823;SDS011;58633;49.470;11.004;2022-10-31T06:01:21;7.53;;;6.28;;
6823;SDS011;58633;49.470;11.004;2022-10-31T06:03:46;10.45;;;6.20;;
6823;SDS011;58633;49.470;11.004;2022-10-31T06:06:12;10.90;;;6.40;;
6823;SDS011;58633;49.470;11.004;2022-10-31T06:08:37;10.57;;;6.20;;
6823;SDS011;58633;49.470;11.004;2022-10-31T06:11:03;8.98;;;6.50;;
6823;SDS011;58633;49.470;11.004;2022-10-31T06:13:29;13.38;;;6.60;;
6823;SDS011;58633;49.470;11.004;2022-10-31T06:15:54;15.32;;;6.40;;
6823;SDS011;58633;49.470;11.004;2022-10-31T06:18:20;11.93;;;6.20;;
6823;SDS011;58633;49.470;11.004;2022-10-31T06:20:45;9.07;;;6.43;;
6823;SDS011;58633;49.470;11.004;2022-10-31T06:23:11;8.73;;;6.30;;
6823;SDS011;58633;49.470;11.004;2022-10-31T06:25:36;11.45;;;6.28;;
6823;SDS011;58633;49.470;11.004;2022-10-31T06:28:02;7.63;;;6.18;;
6823;SDS011;58633;49.470;11.004;2022-10-31T06:30:28;7.40;;;6.57;;
6823;SDS011;58633;49.470;11.004;2022-10-31T06:32:53;11.38;;;6.68;;
6823;SDS011;58633;49.470;11.004;2022-10-31T06:35:19;10.60;;;6.65;;
6823;SDS011;58633;49.470;11.004;2022-10-31T06:37:51;9.55;;;6.43;;
6823;SDS011;58633;49.470;11.004;2022-10-31T06:40:18;8.55;;;6.57;;
6823;SDS011;58633;49.470;11.004;2022-10-31T06:42:43;10.52;;;6.75;;
6823;SDS011;58633;49.470;11.004;2022-10-31T06:45:09;15.55;;;7.30;;
6823;SDS011;58633;49.470;11.004;2022-10-31T06:47:34;18.95;;;7.13;;
6823;SDS011;58633;49.470;11.004;2022-10-31T06:50:00;22.20;;;6.53;;
6823;SDS011;58633;49.470;11.004;2022-10-31T06:52:25;8.63;;;6.40;;
6823;SDS011;58633;49.470;11.004;2022-10-31T06:54:51;10.35;;;6.20;;
6823;SDS011;58633;49.470;11.004;2022-10-31T06:57:17;8.57;;;5.97;;
6823;SDS011;58633;49.470;11.004;2022-10-31T06:59:42;8.48;;;6.10;;
6823;SDS011;58633;49.470;11.004;2022-10-31T07:02:11;8.38;;;6.13;;
6823;SDS011;58633;49.470;11.004;2022-10-31T07:04:37;11.05;;;6.57;;
6823;SDS011;58633;49.470;11.004;2022-10-31T07:07:02;11.05;;;6.90;;
6823;SDS011;58633;49.470;11.004;2022-10-31T07:09:28;8.65;;;6.80;;
6823;SDS011;58633;49.470;11.004;2022-10-31T07:11:54;9.65;;;6.57;;
6823;SDS011;58633;49.470;11.004;2022-10-31T07:14:19;9.10;;;6.13;;
6823;SDS011;58633;49.470;11.004;2022-10-31T07:16:49;9.10;;;6.53;;
6823;SDS011;58633;49.470;11.004;2022-10-31T07:19:15;7.55;;;6.05;;
6823;SDS011;58633;49.470;11.004;2022-10-31T07:21:41;9.35;;;6.20;;
6823;SDS011;58633;49.470;11.004;2022-10-31T07:24:06;11.25;;;6.75;;
6823;SDS011;58633;49.470;11.004;2022-10-31T07:26:32;10.82;;;7.53;;
6823;SDS011;58633;49.470;11.004;2022-10-31T07:28:57;12.90;;;7.22;;
6823;SDS011;58633;49.470;11.004;2022-10-31T07:31:24;11.80;;;7.40;;
6823;SDS011;58633;49.470;11.004;2022-10-31T07:33:50;16.20;;;8.15;;
6823;SDS011;58633;49.470;11.004;2022-10-31T07:36:15;9.77;;;7.20;;
6823;SDS011;58633;49.470;11.004;2022-10-31T07:38:41;14.57;;;7.63;;
6823;SDS011;58633;49.470;11.004;2022-10-31T07:41:06;12.95;;;7.63;;
6823;SDS011;58633;49.470;11.004;2022-10-31T07:43:32;12.60;;;7.40;;
6823;SDS011;58633;49.470;11.004;2022-10-31T07:45:57;14.52;;;7.88;;
6823;SDS011;58633;49.470;11.004;2022-10-31T07:48:23;14.05;;;7.32;;
6823;SDS011;58633;49.470;11.004;2022-10-31T07:50:49;16.13;;;7.65;;
6823;SDS011;58633;49.470;11.004;2022-10-31T07:53:14;9.02;;;6.60;;
6823;SDS011;58633;49.470;11.004;2022-10-31T07:55:40;13.13;;;7.40;;
6823;SDS011;58633;49.470;11.004;2022-10-31T07:58:10;13.18;;;7.35;;
6823;SDS011;58633;49.470;11.004;2022-10-31T08:00:38;11.52;;;7.18;;
6823;SDS011;58633;49.470;11.004;2022-10-31T08:03:06;9.18;;;6.45;;
6823;SDS011;58633;49.470;11.004;2022-10-31T08:05:34;11.07;;;6.85;;
6823;SDS011;58633;49.470;11.004;2022-10-31T08:08:00;9.68;;;7.97;;
6823;SDS011;58633;49.470;11.004;2022-10-31T08:10:26;9.98;;;7.50;;
6823;SDS011;58633;49.470;11.004;2022-10-31T08:12:59;9.43;;;7.07;;
6823;SDS011;58633;49.470;11.004;2022-10-31T08:15:27;11.43;;;6.95;;
6823;SDS011;58633;49.470;11.004;2022-10-31T08:17:54;10.95;;;7.45;;
6823;SDS011;58633;49.470;11.004;2022-10-31T08:20:20;8.50;;;7.28;;
6823;SDS011;58633;49.470;11.004;2022-10-31T08:22:55;10.98;;;7.68;;
6823;SDS011;58633;49.470;11.004;2022-10-31T08:25:22;19.67;;;8.98;;
6823;SDS011;58633;49.470;11.004;2022-10-31T08:27:49;10.52;;;7.40;;
6823;SDS011;58633;49.470;11.004;2022-10-31T08:30:16;9.77;;;7.90;;
6823;SDS011;58633;49.470;11.004;2022-10-31T08:32:42;13.85;;;7.70;;
6823;SDS011;58633;49.470;11.004;2022-10-31T08:35:07;12.07;;;7.53;;
6823;SDS011;58633;49.470;11.004;2022-10-31T08:37:33;12.90;;;7.65;;
6823;SDS011;58633;49.470;11.004;2022-10-31T08:39:58;11.30;;;7.15;;
6823;SDS011;58633;49.470;11.004;2022-10-31T08:42:24;13.93;;;8.10;;
6823;SDS011;58633;49.470;11.004;2022-10-31T08:44:49;16.45;;;7.60;;
6823;SDS011;58633;49.470;11.004;2022-10-31T08:47:15;11.48;;;7.47;;
6823;SDS011;58633;49.470;11.004;2022-10-31T08:49:40;11.25;;;7.63;;
6823;SDS011;58633;49.470;11.004;2022-10-31T08:52:06;13.48;;;8.57;;
6823;SDS011;58633;49.470;11.004;2022-10-31T08:54:31;9.55;;;7.93;;
6823;SDS011;58633;49.470;11.004;2022-10-31T08:56:57;11.90;;;7.88;;
6823;SDS011;58633;49.470;11.004;2022-10-31T08:59:22;10.32;;;7.88;;
6823;SDS011;58633;49.470;11.004;2022-10-31T09:01:48;12.90;;;8.93;;
6823;SDS011;58633;49.470;11.004;2022-10-31T09:04:13;9.98;;;8.10;;
6823;SDS011;58633;49.470;11.004;2022-10-31T09:06:40;11.43;;;8.05;;
6823;SDS011;58633;49.470;11.004;2022-10-31T09:09:06;10.25;;;7.80;;
6823;SDS011;58633;49.470;11.004;2022-10-31T09:11:31;13.15;;;8.45;;
6823;SDS011;58633;49.470;11.004;2022-10-31T09:13:57;12.88;;;7.95;;
6823;SDS011;58633;49.470;11.004;2022-10-31T09:16:22;11.32;;;8.18;;
6823;SDS011;58633;49.470;11.004;2022-10-31T09:18:48;13.07;;;8.32;;
6823;SDS011;58633;49.470;11.004;2022-10-31T09:21:13;11.10;;;7.90;;
6823;SDS011;58633;49.470;11.004;2022-10-31T09:23:39;12.40;;;8.65;;
6823;SDS011;58633;49.470;11.004;2022-10-31T09:26:04;12.35;;;7.50;;
6823;SDS011;58633;49.470;11.004;2022-10-31T09:28:30;14.70;;;8.30;;
6823;SDS011;58633;49.470;11.004;2022-10-31T09:30:57;16.67;;;8.85;;
6823;SDS011;58633;49.470;11.004;2022-10-31T09:33:22;14.52;;;8.02;;
6823;SDS011;58633;49.470;11.004;2022-10-31T09:35:48;14.55;;;8.25;;
6823;SDS011;58633;49.470;11.004;2022-10-31T09:38:15;14.02;;;8.70;;
6823;SDS011;58633;49.470;11.004;2022-10-31T09:40:48;14.20;;;8.52;;
6823;SDS011;58633;49.470;11.004;2022-10-31T09:48:49;14.27;;;8.77;;
6823;SDS011;58633;49.470;11.004;2022-10-31T09:51:29;15.80;;;9.20;;
6823;SDS011;58633;49.470;11.004;2022-10-31T09:56:26;12.93;;;8.43;;
6823;SDS011;58633;49.470;11.004;2022-10-31T09:58:54;14.95;;;8.85;;
6823;SDS011;58633;49.470;11.004;2022-10-31T10:02:10;15.27;;;8.88;;
6823;SDS011;58633;49.470;11.004;2022-10-31T10:04:31;13.32;;;9.02;;
6823;SDS011;58633;49.470;11.004;2022-10-31T10:07:03;11.90;;;8.48;;
6823;SDS011;58633;49.470;11.004;2022-10-31T10:09:38;16.17;;;9.23;;
6823;SDS011;58633;49.470;11.004;2022-10-31T10:12:14;13.45;;;8.77;;
6823;SDS011;58633;49.470;11.004;2022-10-31T10:25:34;14.27;;;8.93;;
6823;SDS011;58633;49.470;11.004;2022-10-31T10:30:57;16.50;;;9.07;;
6823;SDS011;58633;49.470;11.004;2022-10-31T10:33:32;12.88;;;9.13;;
6823;SDS011;58633;49.470;11.004;2022-10-31T10:36:04;11.93;;;8.68;;
6823;SDS011;58633;49.470;11.004;2022-10-31T10:41:28;16.75;;;8.40;;
6823;SDS011;58633;49.470;11.004;2022-10-31T10:43:56;11.30;;;8.13;;
6823;SDS011;58633;49.470;11.004;2022-10-31T10:51:49;16.00;;;9.00;;
6823;SDS011;58633;49.470;11.004;2022-10-31T10:54:38;11.80;;;8.43;;
6823;SDS011;58633;49.470;11.004;2022-10-31T10:57:36;11.35;;;8.05;;
6823;SDS011;58633;49.470;11.004;2022-10-31T11:00:17;18.38;;;8.63;;
6823;SDS011;58633;49.470;11.004;2022-10-31T11:02:43;12.73;;;8.98;;
6823;SDS011;58633;49.470;11.004;2022-10-31T11:05:13;11.20;;;8.30;;
6823;SDS011;58633;49.470;11.004;2022-10-31T11:07:59;12.88;;;8.50;;
6823;SDS011;58633;49.470;11.004;2022-10-31T11:10:25;13.27;;;8.70;;
6823;SDS011;58633;49.470;11.004;2022-10-31T11:12:58;13.82;;;8.80;;
6823;SDS011;58633;49.470;11.004;2022-10-31T11:15:39;13.90;;;8.05;;
6823;SDS011;58633;49.470;11.004;2022-10-31T11:18:26;13.85;;;7.88;;
6823;SDS011;58633;49.470;11.004;2022-10-31T11:20:56;11.60;;;8.32;;
6823;SDS011;58633;49.470;11.004;2022-10-31T11:23:24;10.90;;;7.75;;
6823;SDS011;58633;49.470;11.004;2022-10-31T11:25:51;12.35;;;7.60;;
6823;SDS011;58633;49.470;11.004;2022-10-31T11:28:22;11.00;;;8.13;;
6823;SDS011;58633;49.470;11.004;2022-10-31T11:30:49;12.75;;;7.72;;
6823;SDS011;58633;49.470;11.004;2022-10-31T11:35:47;9.80;;;7.32;;
6823;SDS011;58633;49.470;11.004;2022-10-31T11:38:17;10.48;;;7.07;;
6823;SDS011;58633;49.470;11.004;2022-10-31T11:43:21;17.95;;;7.90;;
6823;SDS011;58633;49.470;11.004;2022-10-31T11:45:47;10.45;;;7.10;;
6823;SDS011;58633;49.470;11.004;2022-10-31T11:48:15;12.85;;;7.60;;
6823;SDS011;58633;49.470;11.004;2022-10-31T11:50:46;15.00;;;7.88;;
6823;SDS011;58633;49.470;11.004;2022-10-31T11:53:26;9.45;;;7.40;;
6823;SDS011;58633;49.470;11.004;2022-10-31T11:56:10;11.60;;;7.95;;
6823;SDS011;58633;49.470;11.004;2022-10-31T11:58:39;12.48;;;7.40;;
6823;SDS011;58633;49.470;11.004;2022-10-31T12:01:05;13.65;;;7.45;;
6823;SDS011;58633;49.470;11.004;2022-10-31T12:03:47;10.57;;;7.53;;
6823;SDS011;58633;49.470;11.004;2022-10-31T12:06:31;9.23;;;7.10;;
6823;SDS011;58633;49.470;11.004;2022-10-31T12:09:17;9.65;;;6.90;;
6823;SDS011;58633;49.470;11.004;2022-10-31T12:11:54;11.38;;;7.93;;
6823;SDS011;58633;49.470;11.004;2022-10-31T12:17:23;12.57;;;7.50;;
6823;SDS011;58633;49.470;11.004;2022-10-31T12:41:47;9.63;;;6.13;;
6823;SDS011;58633;49.470;11.004;2022-10-31T12:58:06;9.73;;;6.70;;
6823;SDS011;58633;49.470;11.004;2022-10-31T13:00:35;15.27;;;6.63;;
6823;SDS011;58633;49.470;11.004;2022-10-31T13:03:21;8.93;;;6.65;;
6823;SDS011;58633;49.470;11.004;2022-10-31T13:05:54;10.57;;;7.15;;
6823;SDS011;58633;49.470;11.004;2022-10-31T13:08:28;10.00;;;7.00;;
6823;SDS011;58633;49.470;11.004;2022-10-31T13:11:12;12.05;;;7.43;;
6823;SDS011;58633;49.470;11.004;2022-10-31T13:16:29;14.43;;;8.20;;
6823;SDS011;58633;49.470;11.004;2022-10-31T13:19:10;13.60;;;8.60;;
6823;SDS011;58633;49.470;11.004;2022-10-31T13:24:39;16.25;;;8.93;;
6823;SDS011;58633;49.470;11.004;2022-10-31T13:27:12;12.27;;;9.20;;
6823;SDS011;58633;49.470;11.004;2022-10-31T13:30:00;11.52;;;8.23;;
6823;SDS011;58633;49.470;11.004;2022-10-31T13:32:55;12.52;;;9.23;;
6823;SDS011;58633;49.470;11.004;2022-10-31T13:38:24;11.68;;;8.90;;
6823;SDS011;58633;49.470;11.004;2022-10-31T13:41:17;11.95;;;8.77;;
6823;SDS011;58633;49.470;11.004;2022-10-31T13:44:03;12.82;;;8.63;;
6823;SDS011;58633;49.470;11.004;2022-10-31T13:46:40;13.00;;;9.52;;
6823;SDS011;58633;49.470;11.004;2022-10-31T13:54:39;13.43;;;9.48;;
6823;SDS011;58633;49.470;11.004;2022-10-31T13:57:06;15.27;;;9.38;;
6823;SDS011;58633;49.470;11.004;2022-10-31T13:59:45;12.80;;;8.60;;
6823;SDS011;58633;49.470;11.004;2022-10-31T14:02:18;16.98;;;10.73;;
6823;SDS011;58633;49.470;11.004;2022-10-31T14:04:52;12.38;;;9.48;;
6823;SDS011;58633;49.470;11.004;2022-10-31T14:07:22;16.98;;;9.23;;
6823;SDS011;58633;49.470;11.004;2022-10-31T14:15:19;13.20;;;9.48;;
6823;SDS011;58633;49.470;11.004;2022-10-31T14:17:54;11.77;;;8.85;;
6823;SDS011;58633;49.470;11.004;2022-10-31T14:20:31;15.40;;;9.68;;
6823;SDS011;58633;49.470;11.004;2022-10-31T14:28:44;12.68;;;9.43;;
6823;SDS011;58633;49.470;11.004;2022-10-31T14:31:56;11.80;;;8.40;;
6823;SDS011;58633;49.470;11.004;2022-10-31T14:34:06;13.45;;;9.43;;
6823;SDS011;58633;49.470;11.004;2022-10-31T14:44:53;12.18;;;8.85;;
6823;SDS011;58633;49.470;11.004;2022-10-31T14:52:39;13.02;;;8.98;;
6823;SDS011;58633;49.470;11.004;2022-10-31T14:55:09;13.52;;;9.07;;
6823;SDS011;58633;49.470;11.004;2022-10-31T14:57:38;11.82;;;8.98;;
6823;SDS011;58633;49.470;11.004;2022-10-31T15:00:17;11.27;;;9.10;;
6823;SDS011;58633;49.470;11.004;2022-10-31T15:05:21;14.45;;;8.85;;
6823;SDS011;58633;49.470;11.004;2022-10-31T15:07:54;13.23;;;8.98;;
6823;SDS011;58633;49.470;11.004;2022-10-31T15:10:22;14.88;;;9.07;;
6823;SDS011;58633;49.470;11.004;2022-10-31T15:12:54;12.13;;;8.57;;
6823;SDS011;58633;49.470;11.004;2022-10-31T15:15:22;14.63;;;9.68;;
6823;SDS011;58633;49.470;11.004;2022-10-31T15:17:51;13.10;;;8.90;;
6823;SDS011;58633;49.470;11.004;2022-10-31T15:20:23;14.85;;;8.23;;
6823;SDS011;58633;49.470;11.004;2022-10-31T15:22:51;11.95;;;8.77;;
6823;SDS011;58633;49.470;11.004;2022-10-31T15:25:20;19.05;;;9.55;;
6823;SDS011;58633;49.470;11.004;2022-10-31T15:27:47;14.48;;;11.30;;
6823;SDS011;58633;49.470;11.004;2022-10-31T15:33:01;13.48;;;9.52;;
6823;SDS011;58633;49.470;11.004;2022-10-31T15:35:27;19.55;;;10.32;;
6823;SDS011;58633;49.470;11.004;2022-10-31T15:37:55;14.63;;;9.45;;
6823;SDS011;58633;49.470;11.004;2022-10-31T15:40:22;13.95;;;8.95;;
6823;SDS011;58633;49.470;11.004;2022-10-31T15:42:59;14.13;;;9.80;;
6823;SDS011;58633;49.470;11.004;2022-10-31T15:45:28;17.90;;;9.77;;
6823;SDS011;58633;49.470;11.004;2022-10-31T15:47:59;12.77;;;9.23;;
6823;SDS011;58633;49.470;11.004;2022-10-31T15:50:37;13.55;;;8.68;;
6823;SDS011;58633;49.470;11.004;2022-10-31T15:53:05;14.27;;;9.55;;
6823;SDS011;58633;49.470;11.004;2022-10-31T15:55:46;13.73;;;9.23;;
6823;SDS011;58633;49.470;11.004;2022-10-31T15:58:17;15.98;;;8.93;;
6823;SDS011;58633;49.470;11.004;2022-10-31T16:00:43;15.23;;;8.93;;
6823;SDS011;58633;49.470;11.004;2022-10-31T16:05:59;13.43;;;9.80;;
6823;SDS011;58633;49.470;11.004;2022-10-31T16:10:56;13.38;;;9.88;;
6823;SDS011;58633;49.470;11.004;2022-10-31T16:13:27;14.85;;;9.70;;
6823;SDS011;58633;49.470;11.004;2022-10-31T16:15:59;15.75;;;9.77;;
6823;SDS011;58633;49.470;11.004;2022-10-31T16:18:26;13.73;;;9.60;;
6823;SDS011;58633;49.470;11.004;2022-10-31T16:20:55;13.65;;;10.18;;
6823;SDS011;58633;49.470;11.004;2022-10-31T16:23:24;14.65;;;9.50;;
6823;SDS011;58633;49.470;11.004;2022-10-31T16:25:51;15.25;;;9.98;;
6823;SDS011;58633;49.470;11.004;2022-10-31T16:28:18;14.18;;;10.10;;
6823;SDS011;58633;49.470;11.004;2022-10-31T16:30:49;15.32;;;10.82;;
6823;SDS011;58633;49.470;11.004;2022-10-31T16:33:40;13.32;;;10.10;;
6823;SDS011;58633;49.470;11.004;2022-10-31T16:38:56;15.32;;;11.43;;
6823;SDS011;58633;49.470;11.004;2022-10-31T16:41:22;16.63;;;11.30;;
6823;SDS011;58633;49.470;11.004;2022-10-31T16:43:49;23.10;;;12.38;;
6823;SDS011;58633;49.470;11.004;2022-10-31T16:46:17;19.02;;;14.38;;
6823;SDS011;58633;49.470;11.004;2022-10-31T16:48:46;19.70;;;14.57;;
6823;SDS011;58633;49.470;11.004;2022-10-31T16:51:13;23.13;;;17.52;;
6823;SDS011;58633;49.470;11.004;2022-10-31T16:53:39;20.20;;;14.15;;
6823;SDS011;58633;49.470;11.004;2022-10-31T16:56:05;27.67;;;20.77;;
6823;SDS011;58633;49.470;11.004;2022-10-31T16:58:40;23.30;;;16.65;;
6823;SDS011;58633;49.470;11.004;2022-10-31T17:01:06;19.70;;;15.10;;
6823;SDS011;58633;49.470;11.004;2022-10-31T17:03:32;18.85;;;13.80;;
6823;SDS011;58633;49.470;11.004;2022-10-31T17:05:58;23.88;;;14.90;;
6823;SDS011;58633;49.470;11.004;2022-10-31T17:08:23;21.60;;;14.68;;
6823;SDS011;58633;49.470;11.004;2022-10-31T17:10:56;20.42;;;14.90;;
6823;SDS011;58633;49.470;11.004;2022-10-31T17:13:23;26.77;;;18.23;;
6823;SDS011;58633;49.470;11.004;2022-10-31T17:15:55;29.58;;;22.23;;
6823;SDS011;58633;49.470;11.004;2022-10-31T17:18:25;20.80;;;16.45;;
6823;SDS011;58633;49.470;11.004;2022-10-31T17:20:55;19.63;;;14.80;;
6823;SDS011;58633;49.470;11.004;2022-10-31T17:23:23;25.83;;;17.95;;
6823;SDS011;58633;49.470;11.004;2022-10-31T17:25:49;33.63;;;22.13;;
6823;SDS011;58633;49.470;11.004;2022-10-31T17:28:14;27.80;;;19.35;;
6823;SDS011;58633;49.470;11.004;2022-10-31T17:30:41;26.00;;;18.02;;